< < Back
Terminal Aerodrome Forecast


Current Version              Previous Versions:   1  2  3  4  5  6  7  8  9  

Terminal Aerodrome Forecast

180
FTUS42 KTAE 161100
TAFVLD
TAF
KVLD 161120Z 1612/1712 01010KT P6SM SKC
     FM161400 05011G18KT P6SM SKC
     FM162200 08009KT P6SM SCT030 SCT250
     FM170800 05009KT P6SM BKN015=

Latest METAR

584
SAUS70 KWBC 161600 RRK
MTRVLD
METAR KVLD 161553Z 06012G18KT 10SM CLR 16/03 A3024 RMK AO2 SLP248
T01560033


USA.gov is the U.S. government's official web portal to all federal, state and local government web resources and services.